sensor_id;sensor_type;location;lat;lon;timestamp;pressure;altitude;pressure_sealevel;temperature
71205;BMP180;58935;54.498;18.544;2023-04-03T00:01:10;101799.20;;;1.70
71205;BMP180;58935;54.498;18.544;2023-04-03T00:03:36;101797.60;;;1.70
71205;BMP180;58935;54.498;18.544;2023-04-03T00:06:02;101798.20;;;1.70
71205;BMP180;58935;54.498;18.544;2023-04-03T00:08:29;101798.40;;;1.70
71205;BMP180;58935;54.498;18.544;2023-04-03T00:10:56;101809.80;;;1.70
71205;BMP180;58935;54.498;18.544;2023-04-03T00:13:23;101803.00;;;1.70
71205;BMP180;58935;54.498;18.544;2023-04-03T00:15:49;101797.40;;;1.70
71205;BMP180;58935;54.498;18.544;2023-04-03T00:18:14;101808.20;;;1.70
71205;BMP180;58935;54.498;18.544;2023-04-03T00:20:40;101803.80;;;1.70
71205;BMP180;58935;54.498;18.544;2023-04-03T00:23:06;101806.20;;;1.70
71205;BMP180;58935;54.498;18.544;2023-04-03T00:25:32;101803.00;;;1.70
71205;BMP180;58935;54.498;18.544;2023-04-03T00:27:57;101803.60;;;1.70
71205;BMP180;58935;54.498;18.544;2023-04-03T00:30:22;101807.00;;;1.70
71205;BMP180;58935;54.498;18.544;2023-04-03T00:32:49;101811.20;;;1.68
71205;BMP180;58935;54.498;18.544;2023-04-03T00:35:15;101809.40;;;1.60
71205;BMP180;58935;54.498;18.544;2023-04-03T00:37:42;101805.60;;;1.60
71205;BMP180;58935;54.498;18.544;2023-04-03T00:40:09;101807.40;;;1.60
71205;BMP180;58935;54.498;18.544;2023-04-03T00:42:36;101809.20;;;1.60
71205;BMP180;58935;54.498;18.544;2023-04-03T00:47:55;101809.80;;;1.60
71205;BMP180;58935;54.498;18.544;2023-04-03T00:50:22;101806.20;;;1.58
71205;BMP180;58935;54.498;18.544;2023-04-03T00:52:48;101814.60;;;1.52
71205;BMP180;58935;54.498;18.544;2023-04-03T00:55:14;101806.40;;;1.52
71205;BMP180;58935;54.498;18.544;2023-04-03T00:57:41;101809.40;;;1.50
71205;BMP180;58935;54.498;18.544;2023-04-03T01:00:10;101810.40;;;1.50
71205;BMP180;58935;54.498;18.544;2023-04-03T01:02:36;101811.40;;;1.50
71205;BMP180;58935;54.498;18.544;2023-04-03T01:05:03;101801.00;;;1.50
71205;BMP180;58935;54.498;18.544;2023-04-03T01:07:31;101812.20;;;1.50
71205;BMP180;58935;54.498;18.544;2023-04-03T01:09:59;101813.80;;;1.50
71205;BMP180;58935;54.498;18.544;2023-04-03T01:12:29;101812.20;;;1.50
71205;BMP180;58935;54.498;18.544;2023-04-03T01:15:00;101819.80;;;1.50
71205;BMP180;58935;54.498;18.544;2023-04-03T01:17:47;101812.00;;;1.50
71205;BMP180;58935;54.498;18.544;2023-04-03T01:25:33;101810.40;;;1.50
71205;BMP180;58935;54.498;18.544;2023-04-03T01:27:59;101815.60;;;1.46
71205;BMP180;58935;54.498;18.544;2023-04-03T01:30:30;101818.40;;;1.42
71205;BMP180;58935;54.498;18.544;2023-04-03T01:32:57;101817.00;;;1.42
71205;BMP180;58935;54.498;18.544;2023-04-03T01:35:23;101816.20;;;1.42
71205;BMP180;58935;54.498;18.544;2023-04-03T01:37:48;101819.80;;;1.42
71205;BMP180;58935;54.498;18.544;2023-04-03T01:40:13;101820.00;;;1.40
71205;BMP180;58935;54.498;18.544;2023-04-03T01:42:39;101818.80;;;1.40
71205;BMP180;58935;54.498;18.544;2023-04-03T01:45:05;101826.60;;;1.40
71205;BMP180;58935;54.498;18.544;2023-04-03T01:47:30;101817.60;;;1.40
71205;BMP180;58935;54.498;18.544;2023-04-03T01:49:56;101829.40;;;1.42
71205;BMP180;58935;54.498;18.544;2023-04-03T01:52:21;101827.80;;;1.44
71205;BMP180;58935;54.498;18.544;2023-04-03T01:54:47;101822.40;;;1.46
71205;BMP180;58935;54.498;18.544;2023-04-03T01:57:12;101829.80;;;1.42
71205;BMP180;58935;54.498;18.544;2023-04-03T01:59:40;101825.40;;;1.48
71205;BMP180;58935;54.498;18.544;2023-04-03T02:02:06;101829.20;;;1.44
71205;BMP180;58935;54.498;18.544;2023-04-03T02:04:31;101830.20;;;1.46
71205;BMP180;58935;54.498;18.544;2023-04-03T02:06:57;101831.00;;;1.46
71205;BMP180;58935;54.498;18.544;2023-04-03T02:09:22;101824.20;;;1.50
71205;BMP180;58935;54.498;18.544;2023-04-03T02:11:47;101830.60;;;1.50
71205;BMP180;58935;54.498;18.544;2023-04-03T02:14:13;101825.40;;;1.50
71205;BMP180;58935;54.498;18.544;2023-04-03T02:16:39;101831.80;;;1.50
71205;BMP180;58935;54.498;18.544;2023-04-03T02:19:04;101833.20;;;1.50
71205;BMP180;58935;54.498;18.544;2023-04-03T02:21:30;101835.60;;;1.50
71205;BMP180;58935;54.498;18.544;2023-04-03T02:23:55;101834.40;;;1.50
71205;BMP180;58935;54.498;18.544;2023-04-03T02:26:21;101831.20;;;1.50
71205;BMP180;58935;54.498;18.544;2023-04-03T02:28:47;101840.00;;;1.50
71205;BMP180;58935;54.498;18.544;2023-04-03T02:31:12;101835.20;;;1.50
71205;BMP180;58935;54.498;18.544;2023-04-03T02:33:38;101839.40;;;1.50
71205;BMP180;58935;54.498;18.544;2023-04-03T02:36:05;101839.60;;;1.50
71205;BMP180;58935;54.498;18.544;2023-04-03T02:38:31;101841.40;;;1.50
71205;BMP180;58935;54.498;18.544;2023-04-03T02:41:01;101841.80;;;1.50
71205;BMP180;58935;54.498;18.544;2023-04-03T02:43:26;101843.40;;;1.52
71205;BMP180;58935;54.498;18.544;2023-04-03T02:45:52;101842.40;;;1.50
71205;BMP180;58935;54.498;18.544;2023-04-03T02:48:17;101847.20;;;1.50
71205;BMP180;58935;54.498;18.544;2023-04-03T02:50:43;101838.80;;;1.50
71205;BMP180;58935;54.498;18.544;2023-04-03T02:53:08;101846.80;;;1.50
71205;BMP180;58935;54.498;18.544;2023-04-03T02:55:33;101851.00;;;1.50
71205;BMP180;58935;54.498;18.544;2023-04-03T02:57:58;101842.00;;;1.50
71205;BMP180;58935;54.498;18.544;2023-04-03T03:00:24;101845.00;;;1.50
71205;BMP180;58935;54.498;18.544;2023-04-03T03:02:50;101852.00;;;1.50
71205;BMP180;58935;54.498;18.544;2023-04-03T03:05:15;101855.80;;;1.50
71205;BMP180;58935;54.498;18.544;2023-04-03T03:07:41;101850.80;;;1.50
71205;BMP180;58935;54.498;18.544;2023-04-03T03:10:08;101853.40;;;1.50
71205;BMP180;58935;54.498;18.544;2023-04-03T03:12:34;101862.40;;;1.56
71205;BMP180;58935;54.498;18.544;2023-04-03T03:14:59;101857.00;;;1.56
71205;BMP180;58935;54.498;18.544;2023-04-03T03:17:25;101866.20;;;1.50
71205;BMP180;58935;54.498;18.544;2023-04-03T03:19:50;101856.20;;;1.50
71205;BMP180;58935;54.498;18.544;2023-04-03T03:22:16;101863.60;;;1.50
71205;BMP180;58935;54.498;18.544;2023-04-03T03:24:41;101865.00;;;1.50
71205;BMP180;58935;54.498;18.544;2023-04-03T03:27:07;101871.00;;;1.50
71205;BMP180;58935;54.498;18.544;2023-04-03T03:29:32;101866.80;;;1.50
71205;BMP180;58935;54.498;18.544;2023-04-03T03:31:58;101872.60;;;1.50
71205;BMP180;58935;54.498;18.544;2023-04-03T03:34:23;101868.80;;;1.50
71205;BMP180;58935;54.498;18.544;2023-04-03T03:36:49;101874.60;;;1.50
71205;BMP180;58935;54.498;18.544;2023-04-03T03:39:14;101869.00;;;1.50
71205;BMP180;58935;54.498;18.544;2023-04-03T03:41:39;101872.40;;;1.48
71205;BMP180;58935;54.498;18.544;2023-04-03T03:44:05;101874.60;;;1.48
71205;BMP180;58935;54.498;18.544;2023-04-03T03:46:33;101874.80;;;1.50
71205;BMP180;58935;54.498;18.544;2023-04-03T03:48:58;101874.80;;;1.50
71205;BMP180;58935;54.498;18.544;2023-04-03T03:51:24;101876.60;;;1.46
71205;BMP180;58935;54.498;18.544;2023-04-03T03:53:50;101877.40;;;1.48
71205;BMP180;58935;54.498;18.544;2023-04-03T03:56:16;101880.20;;;1.44
71205;BMP180;58935;54.498;18.544;2023-04-03T03:58:41;101887.80;;;1.46
71205;BMP180;58935;54.498;18.544;2023-04-03T04:01:07;101886.40;;;1.40
71205;BMP180;58935;54.498;18.544;2023-04-03T04:03:33;101892.80;;;1.40
71205;BMP180;58935;54.498;18.544;2023-04-03T04:05:58;101900.00;;;1.40
71205;BMP180;58935;54.498;18.544;2023-04-03T04:08:24;101896.60;;;1.40
71205;BMP180;58935;54.498;18.544;2023-04-03T04:10:50;101898.80;;;1.40
71205;BMP180;58935;54.498;18.544;2023-04-03T04:13:15;101900.60;;;1.40
71205;BMP180;58935;54.498;18.544;2023-04-03T04:15:42;101904.20;;;1.40
71205;BMP180;58935;54.498;18.544;2023-04-03T04:18:07;101904.60;;;1.40
71205;BMP180;58935;54.498;18.544;2023-04-03T04:20:33;101907.20;;;1.40
71205;BMP180;58935;54.498;18.544;2023-04-03T04:22:59;101909.60;;;1.40
71205;BMP180;58935;54.498;18.544;2023-04-03T04:25:24;101904.00;;;1.40
71205;BMP180;58935;54.498;18.544;2023-04-03T04:27:50;101905.00;;;1.40
71205;BMP180;58935;54.498;18.544;2023-04-03T04:30:17;101915.60;;;1.40
71205;BMP180;58935;54.498;18.544;2023-04-03T04:32:43;101906.80;;;1.40
71205;BMP180;58935;54.498;18.544;2023-04-03T04:35:09;101904.80;;;1.40
71205;BMP180;58935;54.498;18.544;2023-04-03T04:37:36;101910.40;;;1.40
71205;BMP180;58935;54.498;18.544;2023-04-03T04:40:04;101909.60;;;1.38
71205;BMP180;58935;54.498;18.544;2023-04-03T04:42:30;101912.40;;;1.36
71205;BMP180;58935;54.498;18.544;2023-04-03T04:44:56;101909.80;;;1.40
71205;BMP180;58935;54.498;18.544;2023-04-03T04:47:21;101916.80;;;1.40
71205;BMP180;58935;54.498;18.544;2023-04-03T04:49:46;101924.40;;;1.38
71205;BMP180;58935;54.498;18.544;2023-04-03T04:52:12;101924.80;;;1.36
71205;BMP180;58935;54.498;18.544;2023-04-03T04:54:38;101926.20;;;1.32
71205;BMP180;58935;54.498;18.544;2023-04-03T04:57:03;101937.60;;;1.30
71205;BMP180;58935;54.498;18.544;2023-04-03T04:59:29;101924.00;;;1.30
71205;BMP180;58935;54.498;18.544;2023-04-03T05:01:54;101929.20;;;1.30
71205;BMP180;58935;54.498;18.544;2023-04-03T05:04:20;101928.20;;;1.32
71205;BMP180;58935;54.498;18.544;2023-04-03T05:06:46;101933.00;;;1.36
71205;BMP180;58935;54.498;18.544;2023-04-03T05:09:11;101930.40;;;1.40
71205;BMP180;58935;54.498;18.544;2023-04-03T05:11:37;101945.20;;;1.40
71205;BMP180;58935;54.498;18.544;2023-04-03T05:14:02;101938.40;;;1.40
71205;BMP180;58935;54.498;18.544;2023-04-03T05:16:30;101938.60;;;1.40
71205;BMP180;58935;54.498;18.544;2023-04-03T05:18:56;101932.40;;;1.50
71205;BMP180;58935;54.498;18.544;2023-04-03T05:21:21;101937.20;;;1.50
71205;BMP180;58935;54.498;18.544;2023-04-03T05:23:48;101943.40;;;1.50
71205;BMP180;58935;54.498;18.544;2023-04-03T05:26:13;101943.20;;;1.60
71205;BMP180;58935;54.498;18.544;2023-04-03T05:28:39;101943.00;;;1.60
71205;BMP180;58935;54.498;18.544;2023-04-03T05:31:04;101945.00;;;1.60
71205;BMP180;58935;54.498;18.544;2023-04-03T05:33:29;101945.20;;;1.60
71205;BMP180;58935;54.498;18.544;2023-04-03T05:36:03;101938.60;;;1.62
71205;BMP180;58935;54.498;18.544;2023-04-03T05:38:29;101954.60;;;1.70
71205;BMP180;58935;54.498;18.544;2023-04-03T05:40:55;101954.40;;;1.70
71205;BMP180;58935;54.498;18.544;2023-04-03T05:43:20;101951.20;;;1.80
71205;BMP180;58935;54.498;18.544;2023-04-03T05:45:47;101954.20;;;1.80
71205;BMP180;58935;54.498;18.544;2023-04-03T05:48:12;101964.00;;;1.86
71205;BMP180;58935;54.498;18.544;2023-04-03T05:50:38;101961.20;;;1.80
71205;BMP180;58935;54.498;18.544;2023-04-03T05:53:07;101962.80;;;1.80
71205;BMP180;58935;54.498;18.544;2023-04-03T05:55:37;101967.80;;;1.80
71205;BMP180;58935;54.498;18.544;2023-04-03T05:58:03;101969.40;;;1.76
71205;BMP180;58935;54.498;18.544;2023-04-03T06:00:28;101962.60;;;1.70
71205;BMP180;58935;54.498;18.544;2023-04-03T06:02:53;101972.00;;;1.70
71205;BMP180;58935;54.498;18.544;2023-04-03T06:05:19;101966.40;;;1.70
71205;BMP180;58935;54.498;18.544;2023-04-03T06:07:46;101969.00;;;1.70
71205;BMP180;58935;54.498;18.544;2023-04-03T06:10:14;101973.80;;;1.70
71205;BMP180;58935;54.498;18.544;2023-04-03T06:12:42;101979.80;;;1.60
71205;BMP180;58935;54.498;18.544;2023-04-03T06:15:07;101968.40;;;1.60
71205;BMP180;58935;54.498;18.544;2023-04-03T06:17:36;101981.00;;;1.60
71205;BMP180;58935;54.498;18.544;2023-04-03T06:20:01;101980.80;;;1.64
71205;BMP180;58935;54.498;18.544;2023-04-03T06:22:27;101980.80;;;1.68
71205;BMP180;58935;54.498;18.544;2023-04-03T06:24:54;101984.40;;;1.70
71205;BMP180;58935;54.498;18.544;2023-04-03T06:27:20;101991.00;;;1.78
71205;BMP180;58935;54.498;18.544;2023-04-03T06:29:45;101988.80;;;1.80
71205;BMP180;58935;54.498;18.544;2023-04-03T06:32:11;101996.00;;;1.90
71205;BMP180;58935;54.498;18.544;2023-04-03T06:34:36;102002.40;;;1.90
71205;BMP180;58935;54.498;18.544;2023-04-03T06:37:02;102004.40;;;1.90
71205;BMP180;58935;54.498;18.544;2023-04-03T06:39:27;102010.40;;;1.90
71205;BMP180;58935;54.498;18.544;2023-04-03T06:41:53;102005.80;;;1.88
71205;BMP180;58935;54.498;18.544;2023-04-03T06:44:18;102002.60;;;1.90
71205;BMP180;58935;54.498;18.544;2023-04-03T06:46:44;102005.20;;;1.90
71205;BMP180;58935;54.498;18.544;2023-04-03T06:49:12;102011.00;;;1.92
71205;BMP180;58935;54.498;18.544;2023-04-03T06:51:38;102017.40;;;2.00
71205;BMP180;58935;54.498;18.544;2023-04-03T06:54:06;102022.20;;;2.10
71205;BMP180;58935;54.498;18.544;2023-04-03T06:56:33;102026.00;;;2.20
71205;BMP180;58935;54.498;18.544;2023-04-03T06:58:59;102025.40;;;2.30
71205;BMP180;58935;54.498;18.544;2023-04-03T07:01:28;102031.80;;;2.30
71205;BMP180;58935;54.498;18.544;2023-04-03T07:03:55;102027.60;;;2.30
71205;BMP180;58935;54.498;18.544;2023-04-03T07:06:22;102020.80;;;2.20
71205;BMP180;58935;54.498;18.544;2023-04-03T07:08:47;102025.40;;;2.30
71205;BMP180;58935;54.498;18.544;2023-04-03T07:11:16;102019.60;;;2.36
71205;BMP180;58935;54.498;18.544;2023-04-03T07:13:42;102024.60;;;2.40
71205;BMP180;58935;54.498;18.544;2023-04-03T07:16:08;102026.00;;;2.40
71205;BMP180;58935;54.498;18.544;2023-04-03T07:18:33;102027.20;;;2.32
71205;BMP180;58935;54.498;18.544;2023-04-03T07:20:59;102029.60;;;2.40
71205;BMP180;58935;54.498;18.544;2023-04-03T07:23:25;102032.00;;;2.40
71205;BMP180;58935;54.498;18.544;2023-04-03T07:25:51;102026.20;;;2.50
71205;BMP180;58935;54.498;18.544;2023-04-03T07:28:18;102028.80;;;2.60
71205;BMP180;58935;54.498;18.544;2023-04-03T07:30:47;102033.20;;;2.60
71205;BMP180;58935;54.498;18.544;2023-04-03T07:33:14;102038.00;;;2.60
71205;BMP180;58935;54.498;18.544;2023-04-03T07:35:41;102037.40;;;2.60
71205;BMP180;58935;54.498;18.544;2023-04-03T07:38:06;102036.80;;;2.60
71205;BMP180;58935;54.498;18.544;2023-04-03T07:40:32;102037.40;;;2.62
71205;BMP180;58935;54.498;18.544;2023-04-03T07:42:58;102035.40;;;2.62
71205;BMP180;58935;54.498;18.544;2023-04-03T07:45:26;102042.80;;;2.64
71205;BMP180;58935;54.498;18.544;2023-04-03T07:47:51;102046.80;;;2.70
71205;BMP180;58935;54.498;18.544;2023-04-03T07:50:17;102047.40;;;2.70
71205;BMP180;58935;54.498;18.544;2023-04-03T07:52:43;102040.00;;;2.70
71205;BMP180;58935;54.498;18.544;2023-04-03T07:55:08;102048.80;;;2.74
71205;BMP180;58935;54.498;18.544;2023-04-03T07:57:34;102047.40;;;2.70
71205;BMP180;58935;54.498;18.544;2023-04-03T08:00:00;102050.00;;;2.70
71205;BMP180;58935;54.498;18.544;2023-04-03T08:02:25;102046.20;;;2.70
71205;BMP180;58935;54.498;18.544;2023-04-03T08:04:52;102049.00;;;2.70
71205;BMP180;58935;54.498;18.544;2023-04-03T08:07:17;102051.20;;;2.70
71205;BMP180;58935;54.498;18.544;2023-04-03T08:09:43;102049.40;;;2.70
71205;BMP180;58935;54.498;18.544;2023-04-03T08:12:10;102049.60;;;2.70
71205;BMP180;58935;54.498;18.544;2023-04-03T08:14:36;102046.40;;;2.80
71205;BMP180;58935;54.498;18.544;2023-04-03T08:17:05;102051.60;;;2.80
71205;BMP180;58935;54.498;18.544;2023-04-03T08:19:37;102052.60;;;2.84
71205;BMP180;58935;54.498;18.544;2023-04-03T08:22:06;102043.20;;;2.90
71205;BMP180;58935;54.498;18.544;2023-04-03T08:24:32;102043.60;;;3.06
71205;BMP180;58935;54.498;18.544;2023-04-03T08:26:58;102044.20;;;3.20
71205;BMP180;58935;54.498;18.544;2023-04-03T08:29:24;102051.60;;;3.26
71205;BMP180;58935;54.498;18.544;2023-04-03T08:31:50;102042.80;;;3.30
71205;BMP180;58935;54.498;18.544;2023-04-03T08:34:16;102045.40;;;3.38
71205;BMP180;58935;54.498;18.544;2023-04-03T08:36:42;102049.20;;;3.50
71205;BMP180;58935;54.498;18.544;2023-04-03T08:39:07;102045.40;;;3.50
71205;BMP180;58935;54.498;18.544;2023-04-03T08:41:35;102050.00;;;3.50
71205;BMP180;58935;54.498;18.544;2023-04-03T08:49:22;102047.00;;;3.30
71205;BMP180;58935;54.498;18.544;2023-04-03T08:51:50;102043.80;;;3.20
71205;BMP180;58935;54.498;18.544;2023-04-03T08:54:24;102043.80;;;3.20
71205;BMP180;58935;54.498;18.544;2023-04-03T08:56:50;102041.40;;;3.20
71205;BMP180;58935;54.498;18.544;2023-04-03T08:59:24;102040.20;;;3.30
71205;BMP180;58935;54.498;18.544;2023-04-03T09:01:54;102040.60;;;3.24
71205;BMP180;58935;54.498;18.544;2023-04-03T09:04:21;102049.80;;;3.28
71205;BMP180;58935;54.498;18.544;2023-04-03T09:06:52;102047.40;;;3.30
71205;BMP180;58935;54.498;18.544;2023-04-03T09:09:40;102044.60;;;3.30
71205;BMP180;58935;54.498;18.544;2023-04-03T09:12:13;102050.60;;;3.30
71205;BMP180;58935;54.498;18.544;2023-04-03T09:14:51;102050.00;;;3.30
71205;BMP180;58935;54.498;18.544;2023-04-03T09:17:41;102047.40;;;3.30
71205;BMP180;58935;54.498;18.544;2023-04-03T09:20:15;102050.20;;;3.30
71205;BMP180;58935;54.498;18.544;2023-04-03T09:22:45;102049.60;;;3.32
71205;BMP180;58935;54.498;18.544;2023-04-03T09:25:17;102045.00;;;3.32
71205;BMP180;58935;54.498;18.544;2023-04-03T09:27:44;102046.00;;;3.30
71205;BMP180;58935;54.498;18.544;2023-04-03T09:30:15;102052.60;;;3.40
71205;BMP180;58935;54.498;18.544;2023-04-03T09:32:43;102055.00;;;3.30
71205;BMP180;58935;54.498;18.544;2023-04-03T09:35:18;102047.60;;;3.30
71205;BMP180;58935;54.498;18.544;2023-04-03T09:37:47;102045.60;;;3.30
71205;BMP180;58935;54.498;18.544;2023-04-03T09:40:27;102047.80;;;3.30
71205;BMP180;58935;54.498;18.544;2023-04-03T09:42:59;102040.40;;;3.40
71205;BMP180;58935;54.498;18.544;2023-04-03T09:45:29;102042.60;;;3.40
71205;BMP180;58935;54.498;18.544;2023-04-03T09:50:28;102043.00;;;3.58
71205;BMP180;58935;54.498;18.544;2023-04-03T09:52:54;102041.00;;;3.66
71205;BMP180;58935;54.498;18.544;2023-04-03T09:55:27;102046.40;;;3.60
71205;BMP180;58935;54.498;18.544;2023-04-03T09:58:00;102042.00;;;3.52
71205;BMP180;58935;54.498;18.544;2023-04-03T10:00:31;102044.40;;;3.50
71205;BMP180;58935;54.498;18.544;2023-04-03T10:05:37;102044.40;;;3.50
71205;BMP180;58935;54.498;18.544;2023-04-03T10:08:23;102040.00;;;3.50
71205;BMP180;58935;54.498;18.544;2023-04-03T10:13:51;102047.60;;;3.42
71205;BMP180;58935;54.498;18.544;2023-04-03T10:21:45;102051.80;;;3.40
71205;BMP180;58935;54.498;18.544;2023-04-03T10:24:21;102045.20;;;3.40
71205;BMP180;58935;54.498;18.544;2023-04-03T10:26:59;102045.80;;;3.32
71205;BMP180;58935;54.498;18.544;2023-04-03T10:29:40;102044.40;;;3.30
71205;BMP180;58935;54.498;18.544;2023-04-03T10:34:55;102046.40;;;3.20
71205;BMP180;58935;54.498;18.544;2023-04-03T10:37:27;102044.80;;;3.22
71205;BMP180;58935;54.498;18.544;2023-04-03T10:40:01;102044.20;;;3.20
71205;BMP180;58935;54.498;18.544;2023-04-03T10:45:26;102044.40;;;3.28
71205;BMP180;58935;54.498;18.544;2023-04-03T10:50:36;102040.60;;;3.40
71205;BMP180;58935;54.498;18.544;2023-04-03T10:55:43;102038.20;;;3.40
71205;BMP180;58935;54.498;18.544;2023-04-03T10:58:21;102047.40;;;3.40
71205;BMP180;58935;54.498;18.544;2023-04-03T11:00:51;102040.40;;;3.50
71205;BMP180;58935;54.498;18.544;2023-04-03T11:05:53;102043.80;;;3.40
71205;BMP180;58935;54.498;18.544;2023-04-03T11:08:27;102042.40;;;3.40
71205;BMP180;58935;54.498;18.544;2023-04-03T11:10:58;102042.60;;;3.50
71205;BMP180;58935;54.498;18.544;2023-04-03T11:13:33;102047.00;;;3.50
71205;BMP180;58935;54.498;18.544;2023-04-03T11:16:00;102041.20;;;3.60
71205;BMP180;58935;54.498;18.544;2023-04-03T11:18:32;102044.80;;;3.80
71205;BMP180;58935;54.498;18.544;2023-04-03T11:21:08;102042.80;;;4.00
71205;BMP180;58935;54.498;18.544;2023-04-03T11:23:39;102051.40;;;4.00
71205;BMP180;58935;54.498;18.544;2023-04-03T11:26:11;102051.80;;;3.90
71205;BMP180;58935;54.498;18.544;2023-04-03T11:28:40;102045.20;;;3.72
71205;BMP180;58935;54.498;18.544;2023-04-03T11:31:31;102044.60;;;3.62
71205;BMP180;58935;54.498;18.544;2023-04-03T11:34:08;102045.00;;;3.50
71205;BMP180;58935;54.498;18.544;2023-04-03T11:36:44;102042.80;;;3.60
71205;BMP180;58935;54.498;18.544;2023-04-03T11:39:21;102045.40;;;3.50
71205;BMP180;58935;54.498;18.544;2023-04-03T11:41:48;102042.80;;;3.50
71205;BMP180;58935;54.498;18.544;2023-04-03T11:46:50;102043.20;;;3.30
71205;BMP180;58935;54.498;18.544;2023-04-03T11:49:49;102033.20;;;3.40
71205;BMP180;58935;54.498;18.544;2023-04-03T11:52:10;102044.20;;;3.46
71205;BMP180;58935;54.498;18.544;2023-04-03T11:54:44;102039.20;;;3.50
71205;BMP180;58935;54.498;18.544;2023-04-03T11:59:41;102032.00;;;3.60
71205;BMP180;58935;54.498;18.544;2023-04-03T12:10:32;102035.20;;;3.76
71205;BMP180;58935;54.498;18.544;2023-04-03T12:12:58;102024.60;;;3.80
71205;BMP180;58935;54.498;18.544;2023-04-03T12:20:55;102027.80;;;4.02
71205;BMP180;58935;54.498;18.544;2023-04-03T12:26:00;102028.00;;;4.22
71205;BMP180;58935;54.498;18.544;2023-04-03T12:28:39;102024.40;;;4.18
71205;BMP180;58935;54.498;18.544;2023-04-03T12:31:08;102026.40;;;4.00
71205;BMP180;58935;54.498;18.544;2023-04-03T12:33:51;102022.00;;;3.90
71205;BMP180;58935;54.498;18.544;2023-04-03T12:36:33;102022.40;;;3.80
71205;BMP180;58935;54.498;18.544;2023-04-03T12:39:09;102023.20;;;3.80
71205;BMP180;58935;54.498;18.544;2023-04-03T12:41:45;102014.40;;;3.80
71205;BMP180;58935;54.498;18.544;2023-04-03T12:44:34;102025.20;;;3.90
71205;BMP180;58935;54.498;18.544;2023-04-03T12:47:24;102011.20;;;3.80
71205;BMP180;58935;54.498;18.544;2023-04-03T12:49:52;102010.00;;;3.90
71205;BMP180;58935;54.498;18.544;2023-04-03T12:52:30;102009.00;;;3.90
71205;BMP180;58935;54.498;18.544;2023-04-03T12:54:58;102003.40;;;3.92
71205;BMP180;58935;54.498;18.544;2023-04-03T12:57:26;102003.20;;;3.90
71205;BMP180;58935;54.498;18.544;2023-04-03T12:59:53;102003.00;;;3.80
71205;BMP180;58935;54.498;18.544;2023-04-03T13:02:23;102004.60;;;3.80
71205;BMP180;58935;54.498;18.544;2023-04-03T13:04:50;102003.60;;;3.70
71205;BMP180;58935;54.498;18.544;2023-04-03T13:07:21;102003.40;;;3.58
71205;BMP180;58935;54.498;18.544;2023-04-03T13:09:56;102006.60;;;3.50
71205;BMP180;58935;54.498;18.544;2023-04-03T13:12:22;102001.60;;;3.30
71205;BMP180;58935;54.498;18.544;2023-04-03T13:14:52;102004.40;;;3.30
71205;BMP180;58935;54.498;18.544;2023-04-03T13:17:18;102012.80;;;3.48
71205;BMP180;58935;54.498;18.544;2023-04-03T13:19:44;102001.80;;;3.60
71205;BMP180;58935;54.498;18.544;2023-04-03T13:24:44;101998.60;;;3.50
71205;BMP180;58935;54.498;18.544;2023-04-03T13:27:12;101999.60;;;3.50
71205;BMP180;58935;54.498;18.544;2023-04-03T13:29:38;101993.60;;;3.58
71205;BMP180;58935;54.498;18.544;2023-04-03T13:32:05;101994.40;;;3.60
71205;BMP180;58935;54.498;18.544;2023-04-03T13:34:38;101983.40;;;3.70
71205;BMP180;58935;54.498;18.544;2023-04-03T13:37:05;101990.00;;;3.80
71205;BMP180;58935;54.498;18.544;2023-04-03T13:39:36;101995.80;;;3.70
71205;BMP180;58935;54.498;18.544;2023-04-03T13:44:35;101994.00;;;3.52
71205;BMP180;58935;54.498;18.544;2023-04-03T13:47:22;101981.80;;;3.60
71205;BMP180;58935;54.498;18.544;2023-04-03T13:52:26;101980.60;;;3.60
71205;BMP180;58935;54.498;18.544;2023-04-03T13:54:55;101975.40;;;3.40
71205;BMP180;58935;54.498;18.544;2023-04-03T13:57:21;101980.20;;;3.42
71205;BMP180;58935;54.498;18.544;2023-04-03T13:59:47;101988.40;;;3.50
71205;BMP180;58935;54.498;18.544;2023-04-03T14:02:21;101984.60;;;3.56
71205;BMP180;58935;54.498;18.544;2023-04-03T14:04:51;101980.80;;;3.60
71205;BMP180;58935;54.498;18.544;2023-04-03T14:07:18;101991.20;;;3.60
71205;BMP180;58935;54.498;18.544;2023-04-03T14:09:45;101978.80;;;3.60
71205;BMP180;58935;54.498;18.544;2023-04-03T14:14:44;101978.20;;;3.48
71205;BMP180;58935;54.498;18.544;2023-04-03T14:17:16;101969.00;;;3.58
71205;BMP180;58935;54.498;18.544;2023-04-03T14:19:42;101967.40;;;3.80
71205;BMP180;58935;54.498;18.544;2023-04-03T14:22:13;101967.60;;;4.10
71205;BMP180;58935;54.498;18.544;2023-04-03T14:24:40;101963.40;;;4.20
71205;BMP180;58935;54.498;18.544;2023-04-03T14:27:17;101968.80;;;4.10
71205;BMP180;58935;54.498;18.544;2023-04-03T14:29:43;101978.40;;;3.90
71205;BMP180;58935;54.498;18.544;2023-04-03T14:32:12;101971.40;;;3.62
71205;BMP180;58935;54.498;18.544;2023-04-03T14:34:38;101968.00;;;3.40
71205;BMP180;58935;54.498;18.544;2023-04-03T14:37:05;101964.80;;;3.30
71205;BMP180;58935;54.498;18.544;2023-04-03T14:39:36;101967.80;;;3.30
71205;BMP180;58935;54.498;18.544;2023-04-03T14:42:02;101966.00;;;3.30
71205;BMP180;58935;54.498;18.544;2023-04-03T14:44:27;101970.80;;;3.28
71205;BMP180;58935;54.498;18.544;2023-04-03T14:46:53;101959.60;;;3.30
71205;BMP180;58935;54.498;18.544;2023-04-03T14:49:21;101965.60;;;3.20
71205;BMP180;58935;54.498;18.544;2023-04-03T14:51:51;101974.00;;;3.20
71205;BMP180;58935;54.498;18.544;2023-04-03T14:54:20;101966.20;;;3.10
71205;BMP180;58935;54.498;18.544;2023-04-03T14:56:50;101968.60;;;3.00
71205;BMP180;58935;54.498;18.544;2023-04-03T14:59:19;101962.80;;;2.90
71205;BMP180;58935;54.498;18.544;2023-04-03T15:01:46;101961.40;;;2.80
71205;BMP180;58935;54.498;18.544;2023-04-03T15:04:13;101965.60;;;2.72
71205;BMP180;58935;54.498;18.544;2023-04-03T15:06:40;101971.40;;;2.80
71205;BMP180;58935;54.498;18.544;2023-04-03T15:09:15;101957.20;;;2.90
71205;BMP180;58935;54.498;18.544;2023-04-03T15:11:43;101955.00;;;3.10
71205;BMP180;58935;54.498;18.544;2023-04-03T15:14:11;101957.40;;;3.20